Airfield :
LOGIN :

Register | Disclaimer

   EN    FR    IT 

 










Legend :    VFR   Marginal VFR   IFR   Intensive IFR   Very Intensive IFR
Visi :
Ceiling :
>= 8 km
>= 3000ft
5 to 8 km
1000 to 3000 ft
1500m to 5 km
500 to 1000 ft
800 to 1500m
200 to 500 ft
< 800m
< 200 ft
Symbols :   Thunderstorms  Fog  Heavy snow  Heavy precipitations  Wind > 20 kt
SIGMETs :     Misc.  Thunderstorms  Icing  Turbulence  Mountain Waves  Volcanic Ashes







- Airport Elevation : 161 ft
- IATA code : TKU


EFTU - Turku

CURRENT METAR :
  • 190220Z AUTO 26004KT 9999 SCT026/// M11/M12 Q1004

EXPIRED METARs :
  • 190150Z AUTO 26005KT 9999 SCT040/// M09/M10 Q1004
  • 190120Z AUTO 26004KT 9999 FEW037/// BKN042/// M09/M10 Q1004
  • 190050Z AUTO 00000KT 9999 FEW029/// SCT037/// BKN043/// M09/M10 Q1004
  • 190020Z AUTO VRB01KT 9999 -SN BKN020/// BKN025/// OVC045/// M10/M11 Q1004
  • 182350Z AUTO 00000KT 9999 -SN SCT029/// OVC043/// M11/M12 Q1003

TAF TAF EFTU
Valid from the 19 at 03:00 until the 20 at 03:00 UTC


190224Z 1903/2003 26004KT 9999 SCT040
TEMPO 1914/2003 2000 -SN BKN010
No reported NOTAMs for that airfield.



MET'MAP, your aeronautical weather chart ! - Copyright ORBIFLY December 2007 - Disclaimer

ORBIFLY MET'MAP TEAM :

Programming & Development : Alexandra Zaïnal
Concept & Development : Baudouin d'Aumeries
Co-Development & Prog : Marc-Olivier Méhu
Technical & hardware support : Manuel Goepfert

Contact : metmap@orbifly.com




SOURCES & CREDITS :

   NOAA